EGSSEDDK

Guest
Details From EGSS - London Stansted
To EDDK - Koln Bonn
Flight Number -
Tags generated
Created
Modified
Stats Distance 268 nm / 496 km
Max Altitude 33,500 ft / 10,211 m
Waypoints 8
Social Downloads 0
Likes 0
Share VATSIM

Download

Looking for another format? Having issues loading an existing format? Contact us
Advertisement - Login to hide

Notes

Basic altitude profile: - Ascent Rate: 2500ft/min - Ascent Speed: 240kts - Cruise Altitude: 19000ft - Cruise Speed: 420kts - Descent Rate: 1500ft/min - Descent Speed: 240kts Options: - Use NATs: yes - Use PACOTS: yes - Use low airways: yes - Use high airways: yes

Route

EGSS SASKI UL179 NIK L179 SONDI EDDK

ID Type Via Altitude Latitude Longitude Leg Dist Tot Dist Heading (true) Name
O EGSS APT - 0 ft / 0 m 51.88510˚ 0.23496˚ - 0 nm - London Stansted
SASKI FIX - 29,900 ft / 9,114 m 51.54809˚ 2.50000˚ 86 nm 86 nm 103° / 104° -
KEGIT FIX UL179 (AWY-HI) 33,500 ft / 10,211 m 51.40701˚ 3.10660˚ 24 nm 110 nm 110° / 111° -
COA VOR UL179 (AWY-HI) 31,400 ft / 9,571 m 51.34806˚ 3.35528˚ 9 nm 120 nm 111° / 111° -
HELEN FIX UL179 (AWY-HI) 27,000 ft / 8,230 m 51.23531˚ 3.86971˚ 20 nm 141 nm 109° / 110° -
NIK VOR UL179 (AWY-HI) 23,300 ft / 7,102 m 51.16500˚ 4.18389˚ 12 nm 153 nm 110° / 110° NICKY VOR-DME
SONDI FIX L179 (AWY-LO) 19,000 ft / 5,791 m 51.19042˚ 4.83833˚ 24 nm 178 nm 86° / 87° -
O EDDK APT - 0 ft / 0 m 50.86580˚ 7.13890˚ 89 nm 267 nm 102° / 104° Koln Bonn

Altitude Profile

Advertisement - Login to hide

Weather


0- 5 10 15 20 25 30 35+ Temperature / ° C

Clouds and Precipitation
Forecast for 2018-05-25 00:00 UTC. Updated 3 hours ago

Ground ~20,000 ft ~40,000 ft Winds

EGSS

Details ICAO EGSS (STN)
Name London Stansted
Region United Kingdom
Timezone Europe/London (UTC+1.0)
Stats Elevation 348 ft / 106 m (AMSL)
Location 51.885097° 0.234962°
Runways 1
Magnetic Variation 0.297° W

METAR

EGSS 250120Z AUTO 34007KT 2000 DZ OVC001/// //////CB 12/12 Q1017

Decode

TAF

TAF AMD EGSS 250040Z 2500/2606 35010KT 7000 BKN003 TEMPO 2500/2501 1200 DZ BKN001 TEMPO 2501/2509 3000 SHRA BKN005 PROB40 2501/2507 0300 FG BKN001 BECMG 2502/2505 VRB03KT BECMG 2509/2512 9999 SCT016 PROB30 TEMPO 2515/2521 3000 +SHRA +TSGS BKN014CB BECMG 2522/2601 8000 BKN003 PROB40 2600/2606 0200 FG BKN001

Decode

Departure Runways

ID Width Length Bearing (true) Bearing (mag) Surface Threshold Offset Overrun Length
04 151 ft / 46 m 10,011 ft / 3,052 m 42.79° 43.09° Asphalt 994 ft / 303 m 0 ft / 0 m
22 151 ft / 46 m 10,011 ft / 3,052 m 222.81° 223.11° Asphalt 0 ft / 0 m 0 ft / 0 m

EDDK

Details ICAO EDDK (CGN)
Name Koln Bonn
Region Germany - Civil
Timezone Europe/Berlin (UTC+2.0)
Stats Elevation 302 ft / 92 m (AMSL)
Location 50.865801° 7.138903°
Runways 3
Magnetic Variation 1.988° E

METAR

EDDK 250120Z 05003KT 9999 FEW042 SCT080 BKN230 14/14 Q1018 NOSIG

Decode

TAF

TAF EDDK 242300Z 2500/2606 11005KT CAVOK= TAF LDZD 242325Z 2500/2600 06006KT CAVOK TX27/2512Z TN15/2504Z BECMG 2507/2509 22007KT BECMG 2510/2512 30010KT PROB30 TEMPO 2513/2517 TS FEW030CB BECMG 2518/2520 06006KT

Decode

Destination Runways

ID Width Length Bearing (true) Bearing (mag) Surface Threshold Offset Overrun Length
06 148 ft / 45 m 8,047 ft / 2,453 m 64.33° 62.34° Concrete 0 ft / 0 m 197 ft / 60 m
14L 197 ft / 60 m 12,497 ft / 3,809 m 137.55° 135.56° Asphalt 0 ft / 0 m 197 ft / 60 m
14R 148 ft / 45 m 6,102 ft / 1,860 m 137.54° 135.55° Asphalt 0 ft / 0 m 197 ft / 60 m
24 148 ft / 45 m 8,047 ft / 2,453 m 244.36° 242.37° Concrete 0 ft / 0 m 197 ft / 60 m
32L 148 ft / 45 m 6,102 ft / 1,860 m 317.56° 315.57° Asphalt 0 ft / 0 m 197 ft / 60 m
32R 197 ft / 60 m 12,497 ft / 3,809 m 317.58° 315.59° Asphalt 0 ft / 0 m 197 ft / 60 m

Approach Navaids

Runway Type Ident Frequency Range Bearing (true) Bearing (mag) Slope Elevation
14L Localiser IKES 110.90 MHz 18 nm / 33 km 137.58° 135.59° - 302 ft / 92 m (AMSL)
14L Glidescope IKES 110.90 MHz 10 nm / 19 km 137.56° 135.57° 3.00° 230 ft / 70 m (AMSL)
24 Localiser IKOW 109.10 MHz 18 nm / 33 km 244.34° 242.35° - 231 ft / 70 m (AMSL)
24 Glidescope IKOW 109.10 MHz 10 nm / 19 km 244.34° 242.36° 3.00° 272 ft / 83 m (AMSL)
32R Localiser IKEN 109.70 MHz 18 nm / 33 km 317.55° 315.56° - 230 ft / 70 m (AMSL)
32R Glidescope IKEN 109.70 MHz 10 nm / 19 km 317.56° 315.57° 3.00° 302 ft / 92 m (AMSL)

Popular Alternatives